createdAt,value
2017-11-04T00:00:23.731Z,24.15
2017-11-04T00:02:50.481Z,23.40
2017-11-04T00:05:18.473Z,27.25
2017-11-04T00:07:45.238Z,20.58
2017-11-04T00:10:11.679Z,21.83
2017-11-04T00:12:37.901Z,24.50
2017-11-04T00:17:38.532Z,25.90
2017-11-04T00:20:05.141Z,29.80
2017-11-04T00:22:32.716Z,27.73
2017-11-04T00:25:01.510Z,27.87
2017-11-04T00:27:28.303Z,23.90
2017-11-04T00:29:54.679Z,28.12
2017-11-04T00:32:20.902Z,36.15
2017-11-04T00:34:47.701Z,35.50
2017-11-04T00:37:13.903Z,23.40
2017-11-04T00:39:40.811Z,25.20
2017-11-04T00:42:08.918Z,25.25
2017-11-04T00:44:36.049Z,27.37
2017-11-04T00:47:03.105Z,24.83
2017-11-04T00:49:29.300Z,29.92
2017-11-04T00:51:56.367Z,26.33
2017-11-04T00:54:23.142Z,26.75
2017-11-04T00:56:50.252Z,27.95
2017-11-04T00:59:17.050Z,30.17
2017-11-04T01:01:43.761Z,31.50
2017-11-04T01:04:11.008Z,31.15
2017-11-04T01:06:37.662Z,32.10
2017-11-04T01:09:03.881Z,30.70
2017-11-04T01:11:30.423Z,31.62
2017-11-04T01:13:57.858Z,28.25
2017-11-04T01:16:25.610Z,31.98
2017-11-04T01:18:53.358Z,30.25
2017-11-04T01:21:21.124Z,24.45
2017-11-04T01:23:48.091Z,30.17
2017-11-04T01:26:14.911Z,24.60
2017-11-04T01:28:41.675Z,25.85
2017-11-04T01:31:09.051Z,23.00
2017-11-04T01:33:36.599Z,23.35
2017-11-04T01:36:05.080Z,22.90
2017-11-04T01:38:31.545Z,23.17
2017-11-04T01:40:58.530Z,20.05
2017-11-04T01:43:25.155Z,34.25
2017-11-04T01:45:51.760Z,23.90
2017-11-04T01:48:18.660Z,25.83
2017-11-04T01:50:45.393Z,26.67
2017-11-04T01:53:15.536Z,23.50
2017-11-04T01:55:43.036Z,22.17
2017-11-04T01:58:09.513Z,22.02
2017-11-04T02:00:35.732Z,23.23
2017-11-04T02:03:02.873Z,29.65
2017-11-04T02:05:29.091Z,21.95
2017-11-04T02:07:55.526Z,19.83
2017-11-04T02:10:22.532Z,21.02
2017-11-04T02:12:49.915Z,20.92
2017-11-04T02:15:16.931Z,19.50
2017-11-04T02:17:44.442Z,18.33
2017-11-04T02:20:12.112Z,19.10
2017-11-04T02:22:39.370Z,20.00
2017-11-04T02:25:07.067Z,24.40
2017-11-04T02:27:33.810Z,15.30
2017-11-04T02:30:00.552Z,16.08
2017-11-04T02:32:26.770Z,22.92
2017-11-04T02:34:53.511Z,17.10
2017-11-04T02:37:20.303Z,19.50
2017-11-04T02:39:46.985Z,19.40
2017-11-04T02:42:13.712Z,22.77
2017-11-04T02:44:40.452Z,22.58
2017-11-04T02:47:07.385Z,20.35
2017-11-04T02:49:34.418Z,17.80
2017-11-04T02:52:01.709Z,17.58
2017-11-04T02:54:28.496Z,17.37
2017-11-04T02:56:55.924Z,20.75
2017-11-04T02:59:22.753Z,24.48
2017-11-04T03:01:48.962Z,22.55
2017-11-04T03:04:16.159Z,20.65
2017-11-04T03:06:43.275Z,22.20
2017-11-04T03:09:09.552Z,17.67
2017-11-04T03:11:35.747Z,21.10
2017-11-04T03:14:01.927Z,20.58
2017-11-04T03:16:28.142Z,23.67
2017-11-04T03:18:54.379Z,21.67
2017-11-04T03:21:21.037Z,17.00
2017-11-04T03:23:47.725Z,20.42
2017-11-04T03:26:14.672Z,18.50
2017-11-04T03:28:41.628Z,18.10
2017-11-04T03:31:08.484Z,17.95
2017-11-04T03:33:34.758Z,17.48
2017-11-04T03:36:01.431Z,20.92
2017-11-04T03:38:28.623Z,16.12
2017-11-04T03:40:54.921Z,24.37
2017-11-04T03:43:21.939Z,21.25
2017-11-04T03:45:48.740Z,16.80
2017-11-04T03:48:16.073Z,18.98
2017-11-04T03:50:43.762Z,22.48
2017-11-04T03:53:09.975Z,22.48
2017-11-04T03:55:36.156Z,22.10
2017-11-04T03:58:04.357Z,19.55
2017-11-04T04:00:30.582Z,18.95
2017-11-04T04:02:56.783Z,20.25
2017-11-04T04:05:23.902Z,20.30
2017-11-04T04:07:51.209Z,21.55
2017-11-04T04:10:18.645Z,19.30
2017-11-04T04:12:46.107Z,18.55
2017-11-04T04:15:14.410Z,21.25
2017-11-04T04:17:41.493Z,14.85
2017-11-04T04:20:07.919Z,17.98
2017-11-04T04:22:34.713Z,19.08
2017-11-04T04:25:00.955Z,18.73
2017-11-04T04:27:27.444Z,14.15
2017-11-04T04:29:54.404Z,17.90
2017-11-04T04:32:22.982Z,20.08
2017-11-04T04:34:50.216Z,18.12
2017-11-04T04:37:17.341Z,20.70
2017-11-04T04:39:44.574Z,17.85
2017-11-04T04:42:11.816Z,20.65
2017-11-04T04:44:39.285Z,17.62
2017-11-04T04:47:06.026Z,18.05
2017-11-04T04:49:32.884Z,15.43
2017-11-04T04:51:59.052Z,15.05
2017-11-04T04:54:28.890Z,16.10
2017-11-04T04:56:55.817Z,11.90
2017-11-04T04:59:23.351Z,17.42
2017-11-04T05:01:49.567Z,11.27
2017-11-04T05:04:15.850Z,16.37
2017-11-04T05:06:42.636Z,17.50
2017-11-04T05:09:09.124Z,20.48
2017-11-04T05:11:35.896Z,14.95
2017-11-04T05:14:02.097Z,14.70
2017-11-04T05:16:28.321Z,21.00
2017-11-04T05:18:54.506Z,21.80
2017-11-04T05:21:21.290Z,17.75
2017-11-04T05:23:47.908Z,18.87
2017-11-04T05:26:15.209Z,19.52
2017-11-04T05:28:42.075Z,18.55
2017-11-04T05:31:08.263Z,21.27
2017-11-04T05:33:34.455Z,17.02
2017-11-04T05:36:02.198Z,21.37
2017-11-04T05:38:28.669Z,20.92
2017-11-04T05:40:56.073Z,19.80
2017-11-04T05:43:23.779Z,18.42
2017-11-04T05:45:50.735Z,18.00
2017-11-04T05:48:17.182Z,11.35
2017-11-04T05:50:43.406Z,21.83
2017-11-04T05:53:10.833Z,22.02
2017-11-04T05:55:37.910Z,23.90
2017-11-04T05:58:04.236Z,17.42
2017-11-04T06:00:31.499Z,16.55
2017-11-04T06:02:57.706Z,15.23
2017-11-04T06:05:23.935Z,19.75
2017-11-04T06:07:50.383Z,17.83
2017-11-04T06:10:18.255Z,18.62
2017-11-04T06:12:44.561Z,18.75
2017-11-04T06:15:11.793Z,19.08
2017-11-04T06:17:38.772Z,21.98
2017-11-04T06:20:04.980Z,21.05
2017-11-04T06:22:31.839Z,21.08
2017-11-04T06:24:58.940Z,20.55
2017-11-04T06:27:26.332Z,18.87
2017-11-04T06:29:52.745Z,24.33
2017-11-04T06:32:20.336Z,24.67
2017-11-04T06:34:47.388Z,19.15
2017-11-04T06:37:13.898Z,24.10
2017-11-04T06:39:40.995Z,28.35
2017-11-04T06:42:07.209Z,20.33
2017-11-04T06:54:23.786Z,18.67
2017-11-04T06:56:50.010Z,19.20
2017-11-04T06:59:16.244Z,25.05
2017-11-04T07:01:42.441Z,24.08
2017-11-04T07:04:09.283Z,24.37
2017-11-04T07:06:36.142Z,20.52
2017-11-04T07:09:02.685Z,20.77
2017-11-04T07:11:29.695Z,22.60
2017-11-04T07:13:56.446Z,25.77
2017-11-04T07:16:22.667Z,20.45
2017-11-04T07:18:49.144Z,16.75
2017-11-04T07:21:15.603Z,20.27
2017-11-04T07:23:42.566Z,22.87
2017-11-04T07:26:09.526Z,26.75
2017-11-04T07:28:35.763Z,25.17
2017-11-04T07:31:02.033Z,22.17
2017-11-04T07:33:28.259Z,21.83
2017-11-04T07:35:54.495Z,22.48
2017-11-04T07:38:21.019Z,23.05
2017-11-04T07:40:47.342Z,20.85
2017-11-04T07:43:13.664Z,18.70
2017-11-04T07:45:40.883Z,15.65
2017-11-04T07:48:07.188Z,16.42
2017-11-04T07:50:35.218Z,15.55
2017-11-04T07:53:01.514Z,19.35
2017-11-04T07:55:28.044Z,17.30
2017-11-04T07:57:55.499Z,16.77
2017-11-04T08:00:21.766Z,15.38
2017-11-04T08:02:48.361Z,16.33
2017-11-04T08:05:16.309Z,15.93
2017-11-04T08:07:43.414Z,16.87
2017-11-04T08:10:09.683Z,17.30
2017-11-04T08:12:35.950Z,16.55
2017-11-04T08:15:02.267Z,21.05
2017-11-04T08:17:28.596Z,22.60
2017-11-04T08:20:00.571Z,20.35
2017-11-04T08:22:26.832Z,18.65
2017-11-04T08:24:53.037Z,19.98
2017-11-04T08:27:19.520Z,20.35
2017-11-04T08:29:45.884Z,20.30
2017-11-04T08:32:12.419Z,22.13
2017-11-04T08:34:38.845Z,21.58
2017-11-04T08:37:05.115Z,20.10
2017-11-04T08:39:32.075Z,21.95
2017-11-04T08:41:58.392Z,20.58
2017-11-04T08:44:26.522Z,22.25
2017-11-04T08:46:52.857Z,18.90
2017-11-04T08:49:19.066Z,19.35
2017-11-04T08:51:46.027Z,18.50
2017-11-04T08:54:12.304Z,16.08
2017-11-04T08:56:39.106Z,16.60
2017-11-04T08:59:05.506Z,20.80
2017-11-04T09:01:32.457Z,19.87
2017-11-04T09:03:59.468Z,19.52
2017-11-04T09:06:26.023Z,19.05
2017-11-04T09:08:52.231Z,15.43
2017-11-04T09:11:18.456Z,18.15
2017-11-04T09:13:44.833Z,12.50
2017-11-04T09:16:12.506Z,15.23
2017-11-04T09:18:39.401Z,14.50
2017-11-04T09:21:05.634Z,14.32
2017-11-04T09:23:32.219Z,11.80
2017-11-04T09:26:00.341Z,13.52
2017-11-04T09:28:27.122Z,14.32
2017-11-04T09:30:54.081Z,10.18
2017-11-04T09:33:21.533Z,18.25
2017-11-04T09:35:48.586Z,13.00
2017-11-04T09:38:14.802Z,9.60
2017-11-04T09:40:41.262Z,10.75
2017-11-04T09:43:07.939Z,11.70
2017-11-04T09:45:35.696Z,11.68
2017-11-04T09:48:02.858Z,12.18
2017-11-04T09:50:29.838Z,10.50
2017-11-04T09:52:56.235Z,9.85
2017-11-04T09:55:23.211Z,11.88
2017-11-04T09:57:49.594Z,11.55
2017-11-04T10:00:15.898Z,12.73
2017-11-04T10:02:42.112Z,10.70
2017-11-04T10:05:08.690Z,10.43
2017-11-04T10:07:34.913Z,12.52
2017-11-04T10:10:01.144Z,12.82
2017-11-04T10:12:28.151Z,10.48
2017-11-04T10:14:54.362Z,11.02
2017-11-04T10:17:21.281Z,10.90
2017-11-04T10:19:48.803Z,12.32
2017-11-04T10:22:15.257Z,8.45
2017-11-04T10:24:41.521Z,10.32
2017-11-04T10:27:08.127Z,12.60
2017-11-04T10:29:35.227Z,9.95
2017-11-04T10:32:02.008Z,11.20
2017-11-04T10:34:28.252Z,11.60
2017-11-04T10:36:55.509Z,9.18
2017-11-04T10:39:22.797Z,9.77
2017-11-04T10:41:49.548Z,9.05
2017-11-04T10:44:16.405Z,9.30
2017-11-04T10:46:42.633Z,9.25
2017-11-04T10:49:09.404Z,9.95
2017-11-04T10:51:36.921Z,12.93
2017-11-04T10:54:03.472Z,14.82
2017-11-04T10:56:29.668Z,11.02
2017-11-04T10:58:56.515Z,11.77
2017-11-04T11:01:22.860Z,13.48
2017-11-04T11:03:50.059Z,13.27
2017-11-04T11:06:17.127Z,11.57
2017-11-04T11:08:43.353Z,10.88
2017-11-04T11:11:09.859Z,9.77
2017-11-04T11:13:37.192Z,10.00
2017-11-04T11:16:05.751Z,11.27
2017-11-04T11:18:32.012Z,11.10
2017-11-04T11:20:58.875Z,10.00
2017-11-04T11:23:26.369Z,10.13
2017-11-04T11:25:52.610Z,10.38
2017-11-04T11:28:19.228Z,11.18
2017-11-04T11:30:46.483Z,8.88
2017-11-04T11:33:13.515Z,10.35
2017-11-04T11:35:41.144Z,9.13
2017-11-04T11:38:08.718Z,8.30
2017-11-04T11:40:35.696Z,8.75
2017-11-04T11:43:02.018Z,15.95
2017-11-04T11:45:28.232Z,9.40
2017-11-04T11:47:55.174Z,10.37
2017-11-04T11:50:22.205Z,26.13
2017-11-04T11:52:49.792Z,9.57
2017-11-04T11:55:16.448Z,9.27
2017-11-04T11:57:43.386Z,9.37
2017-11-04T12:00:11.443Z,9.50
2017-11-04T12:02:37.670Z,8.80
2017-11-04T12:05:04.961Z,12.03
2017-11-04T12:07:31.908Z,9.80
2017-11-04T12:09:59.087Z,9.97
2017-11-04T12:12:25.507Z,10.23
2017-11-04T12:14:51.858Z,9.85
2017-11-04T12:17:19.048Z,12.10
2017-11-04T12:19:45.321Z,11.57
2017-11-04T12:22:12.065Z,11.20
2017-11-04T12:24:39.148Z,10.30
2017-11-04T12:27:05.461Z,13.60
2017-11-04T12:29:31.807Z,11.00
2017-11-04T12:31:58.657Z,10.45
2017-11-04T12:34:25.699Z,11.15
2017-11-04T12:36:52.098Z,10.68
2017-11-04T12:39:20.102Z,13.48
2017-11-04T12:41:46.644Z,10.97
2017-11-04T12:44:13.718Z,9.63
2017-11-04T12:46:39.933Z,11.73
2017-11-04T12:49:07.377Z,11.77
2017-11-04T12:51:34.160Z,9.63
2017-11-04T12:54:01.152Z,11.60
2017-11-04T12:56:27.672Z,9.30
2017-11-04T12:58:55.322Z,8.82
2017-11-04T13:01:22.411Z,15.00
2017-11-04T13:03:48.848Z,11.45
2017-11-04T13:06:15.675Z,10.00
2017-11-04T13:08:42.118Z,11.65
2017-11-04T13:11:09.476Z,10.00
2017-11-04T13:13:35.740Z,9.95
2017-11-04T13:16:02.227Z,10.60
2017-11-04T13:18:28.527Z,11.70
2017-11-04T13:20:55.537Z,10.27
2017-11-04T13:23:22.391Z,9.50
2017-11-04T13:25:49.776Z,10.45
2017-11-04T13:28:17.876Z,10.85
2017-11-04T13:30:44.114Z,10.63
2017-11-04T13:33:10.334Z,10.70
2017-11-04T13:35:44.478Z,10.50
2017-11-04T13:38:11.273Z,9.98
2017-11-04T13:40:38.338Z,12.45
2017-11-04T13:43:05.330Z,12.20
2017-11-04T13:45:33.073Z,11.98
2017-11-04T13:47:59.865Z,11.07
2017-11-04T13:50:26.143Z,10.45
2017-11-04T13:52:52.421Z,11.23
2017-11-04T13:55:18.823Z,11.43
2017-11-04T13:57:46.483Z,10.63
2017-11-04T14:00:13.131Z,10.48
2017-11-04T14:02:40.105Z,11.25
2017-11-04T14:05:06.841Z,10.73
2017-11-04T14:07:33.305Z,10.43
2017-11-04T14:10:00.383Z,12.07
2017-11-04T14:12:28.011Z,10.65
2017-11-04T14:14:54.857Z,12.60
2017-11-04T14:17:21.187Z,12.18
2017-11-04T14:19:47.683Z,14.52
2017-11-04T14:22:14.982Z,13.40
2017-11-04T14:24:41.798Z,14.77
2017-11-04T14:27:08.027Z,12.77
2017-11-04T14:29:35.158Z,13.48
2017-11-04T14:32:01.952Z,15.00
2017-11-04T14:34:29.515Z,10.88
2017-11-04T14:36:56.422Z,12.40
2017-11-04T14:39:22.724Z,13.65
2017-11-04T14:41:50.857Z,11.80
2017-11-04T14:44:17.571Z,12.13
2017-11-04T14:46:43.998Z,11.00
2017-11-04T14:49:10.803Z,12.68
2017-11-04T14:51:37.777Z,11.60
2017-11-04T14:54:05.558Z,12.75
2017-11-04T14:56:32.232Z,11.65
2017-11-04T14:59:00.168Z,11.57
2017-11-04T15:01:26.961Z,13.25
2017-11-04T15:03:54.513Z,12.00
2017-11-04T15:06:21.591Z,12.23
2017-11-04T15:08:47.842Z,9.75
2017-11-04T15:11:14.054Z,14.77
2017-11-04T15:13:40.922Z,12.35
2017-11-04T15:16:07.672Z,14.32
2017-11-04T15:18:34.503Z,14.18
2017-11-04T15:21:00.926Z,13.70
2017-11-04T15:23:27.967Z,13.35
2017-11-04T15:25:54.481Z,14.18
2017-11-04T15:28:22.505Z,13.02
2017-11-04T15:30:49.662Z,14.13
2017-11-04T15:33:16.635Z,14.10
2017-11-04T15:35:43.190Z,15.93
2017-11-04T15:38:09.398Z,22.02
2017-11-04T15:40:38.057Z,19.48
2017-11-04T15:43:05.617Z,18.05
2017-11-04T15:45:32.913Z,16.48
2017-11-04T15:47:59.984Z,14.85
2017-11-04T15:50:26.730Z,17.00
2017-11-04T15:52:53.857Z,18.90
2017-11-04T15:55:20.890Z,18.52
2017-11-04T15:57:47.159Z,21.08
2017-11-04T16:00:13.997Z,26.83
2017-11-04T16:02:40.329Z,33.38
2017-11-04T16:05:07.085Z,31.10
2017-11-04T16:07:33.843Z,32.65
2017-11-04T16:19:51.334Z,35.97
2017-11-04T16:22:18.879Z,50.65
2017-11-04T16:24:45.547Z,51.42
2017-11-04T16:27:12.553Z,52.10
2017-11-04T16:29:38.775Z,39.17
2017-11-04T16:32:05.157Z,32.55
2017-11-04T16:34:31.364Z,30.75
2017-11-04T16:36:59.896Z,25.90
2017-11-04T16:39:26.879Z,24.77
2017-11-04T16:41:53.224Z,31.67
2017-11-04T16:44:20.575Z,26.58
2017-11-04T16:46:48.076Z,26.62
2017-11-04T16:49:14.754Z,19.85
2017-11-04T16:51:42.221Z,17.70
2017-11-04T16:54:08.669Z,22.10
2017-11-04T16:56:35.541Z,26.55
2017-11-04T16:59:02.311Z,22.95
2017-11-04T17:01:29.391Z,21.60
2017-11-04T17:03:57.335Z,22.70
2017-11-04T17:06:23.725Z,21.08
2017-11-04T17:08:50.737Z,22.65
2017-11-04T17:11:18.923Z,18.35
2017-11-04T17:13:45.874Z,25.17
2017-11-04T17:16:13.062Z,24.80
2017-11-04T17:18:40.062Z,19.52
2017-11-04T17:21:07.054Z,21.67
2017-11-04T17:23:33.615Z,25.92
2017-11-04T17:26:01.087Z,20.85
2017-11-04T17:28:27.371Z,20.55
2017-11-04T17:30:53.599Z,26.60
2017-11-04T17:33:19.861Z,20.23
2017-11-04T17:35:46.613Z,31.27
2017-11-04T17:38:13.567Z,36.08
2017-11-04T17:40:40.888Z,38.30
2017-11-04T17:43:08.404Z,39.75
2017-11-04T17:45:35.626Z,40.25
2017-11-04T17:48:04.630Z,52.17
2017-11-04T17:50:32.062Z,48.30
2017-11-04T17:52:58.649Z,42.75
2017-11-04T17:55:25.307Z,54.65
2017-11-04T17:57:52.663Z,41.28
2017-11-04T18:00:19.418Z,44.88
2017-11-04T18:02:46.083Z,46.20
2017-11-04T18:05:13.675Z,46.35
2017-11-04T18:07:39.882Z,37.17
2017-11-04T18:10:07.349Z,37.17
2017-11-04T18:12:34.656Z,37.08
2017-11-04T18:15:02.473Z,41.55
2017-11-04T18:17:29.828Z,42.60
2017-11-04T18:19:57.854Z,42.95
2017-11-04T18:22:24.856Z,37.97
2017-11-04T18:24:51.340Z,27.52
2017-11-04T18:27:19.255Z,31.95
2017-11-04T18:29:46.220Z,32.25
2017-11-04T18:32:12.431Z,35.97
2017-11-04T18:34:39.179Z,41.40
2017-11-04T18:37:05.379Z,41.53
2017-11-04T18:39:32.089Z,53.78
2017-11-04T18:41:59.200Z,38.25
2017-11-04T18:44:25.526Z,43.90
2017-11-04T18:46:51.756Z,31.05
2017-11-04T18:49:17.965Z,42.42
2017-11-04T18:51:44.851Z,47.78
2017-11-04T18:54:11.284Z,38.13
2017-11-04T18:56:38.277Z,46.03
2017-11-04T18:59:04.534Z,40.30
2017-11-04T19:01:30.736Z,35.90
2017-11-04T19:03:56.946Z,35.15
2017-11-04T19:06:23.423Z,46.03
2017-11-04T19:08:50.434Z,36.95
2017-11-04T19:11:16.727Z,40.95
2017-11-04T19:13:43.154Z,37.63
2017-11-04T19:16:10.117Z,40.88
2017-11-04T19:18:37.960Z,42.75
2017-11-04T19:21:04.929Z,29.95
2017-11-04T19:23:33.378Z,34.45
2017-11-04T19:26:00.168Z,39.10
2017-11-04T19:28:26.433Z,27.37
2017-11-04T19:30:54.401Z,31.58
2017-11-04T19:33:20.770Z,28.83
2017-11-04T19:35:47.962Z,31.58
2017-11-04T19:38:14.159Z,30.92
2017-11-04T19:40:41.271Z,32.47
2017-11-04T19:43:08.896Z,26.42
2017-11-04T19:45:35.728Z,29.85
2017-11-04T19:48:02.501Z,30.77
2017-11-04T19:50:29.139Z,30.27
2017-11-04T19:52:56.755Z,32.15
2017-11-04T19:55:24.728Z,27.55
2017-11-04T19:57:52.152Z,34.05
2017-11-04T20:00:18.822Z,30.42
2017-11-04T20:02:45.998Z,28.10
2017-11-04T20:05:13.292Z,25.92
2017-11-04T20:07:40.148Z,27.83
2017-11-04T20:10:07.517Z,34.58
2017-11-04T20:12:33.948Z,27.25
2017-11-04T20:15:01.833Z,28.70
2017-11-04T20:17:29.627Z,28.48
2017-11-04T20:19:56.739Z,33.28
2017-11-04T20:22:23.043Z,38.28
2017-11-04T20:24:49.729Z,39.85
2017-11-04T20:27:16.814Z,40.65
2017-11-04T20:29:44.660Z,36.22
2017-11-04T20:32:10.951Z,30.58
2017-11-04T20:34:37.241Z,23.10
2017-11-04T20:37:03.592Z,26.33
2017-11-04T20:39:31.687Z,31.05
2017-11-04T20:41:58.409Z,31.35
2017-11-04T20:44:25.398Z,31.20
2017-11-04T20:46:51.632Z,23.17
2017-11-04T20:49:18.275Z,23.67
2017-11-04T20:51:46.016Z,24.85
2017-11-04T20:54:12.257Z,22.75
2017-11-04T20:56:39.430Z,23.50
2017-11-04T20:59:06.941Z,26.70
2017-11-04T21:01:34.161Z,27.92
2017-11-04T21:04:01.282Z,21.27
2017-11-04T21:06:28.991Z,20.20
2017-11-04T21:08:55.711Z,21.92
2017-11-04T21:11:22.706Z,28.52
2017-11-04T21:13:49.027Z,31.42
2017-11-04T21:16:15.299Z,24.73
2017-11-04T21:18:42.141Z,43.38
2017-11-04T21:21:08.428Z,34.55
2017-11-04T21:23:35.266Z,28.65
2017-11-04T21:26:01.487Z,43.28
2017-11-04T21:28:28.115Z,34.28
2017-11-04T21:30:54.356Z,30.98
2017-11-04T21:33:21.259Z,26.45
2017-11-04T21:35:49.074Z,22.55
2017-11-04T21:38:16.789Z,32.15
2017-11-04T21:40:45.806Z,31.08
2017-11-04T21:43:12.093Z,22.80
2017-11-04T21:45:38.614Z,26.15
2017-11-04T21:48:05.182Z,26.50
2017-11-04T21:50:32.503Z,24.55
2017-11-04T21:52:59.271Z,23.25
2017-11-04T21:55:25.479Z,26.80
2017-11-04T21:57:52.252Z,29.30
2017-11-04T22:00:22.847Z,32.28
2017-11-04T22:02:49.849Z,27.65
2017-11-04T22:05:17.046Z,91.18
2017-11-04T22:07:44.900Z,31.55
2017-11-04T22:10:12.686Z,25.40
2017-11-04T22:12:39.991Z,28.65
2017-11-04T22:15:06.815Z,27.00
2017-11-04T22:17:33.319Z,32.38
2017-11-04T22:20:01.207Z,28.38
2017-11-04T22:22:27.804Z,25.23
2017-11-04T22:24:54.791Z,23.73
2017-11-04T22:27:22.731Z,27.02
2017-11-04T22:29:49.032Z,25.12
2017-11-04T22:32:15.269Z,29.67
2017-11-04T22:34:42.082Z,26.37
2017-11-04T22:37:08.875Z,22.37
2017-11-04T22:39:35.126Z,27.23
2017-11-04T22:42:01.383Z,21.90
2017-11-04T22:44:27.568Z,24.27
2017-11-04T22:46:53.817Z,21.05
2017-11-04T22:49:21.042Z,24.52
2017-11-04T22:51:48.817Z,18.90
2017-11-04T22:54:16.939Z,22.55
2017-11-04T22:56:43.992Z,20.98
2017-11-04T22:59:10.683Z,19.75
2017-11-04T23:01:38.218Z,19.35
2017-11-04T23:04:04.491Z,18.83
2017-11-04T23:06:30.737Z,20.08
2017-11-04T23:08:59.915Z,19.73
2017-11-04T23:11:26.949Z,22.02
2017-11-04T23:14:00.854Z,21.52
2017-11-04T23:16:28.794Z,30.65
2017-11-04T23:18:54.990Z,24.17
2017-11-04T23:21:21.309Z,19.85
2017-11-04T23:23:48.073Z,18.27
2017-11-04T23:26:14.337Z,20.75
2017-11-04T23:28:42.333Z,20.85
2017-11-04T23:31:08.571Z,24.08
2017-11-04T23:33:35.367Z,28.87
2017-11-04T23:36:01.996Z,22.33
2017-11-04T23:38:28.232Z,16.00
2017-11-04T23:40:54.904Z,18.52
2017-11-04T23:43:21.950Z,19.33
2017-11-04T23:45:48.797Z,22.35
2017-11-04T23:48:15.047Z,16.83
2017-11-04T23:50:41.701Z,22.13
2017-11-04T23:53:08.755Z,16.15
2017-11-04T23:55:35.026Z,13.38
2017-11-04T23:58:02.035Z,15.75
